sensor_id;sensor_type;location;lat;lon;timestamp;pressure;altitude;pressure_sealevel;temperature;humidity
18275;BME280;19470;49.322;7.218;2023-05-19T00:00:28;99303.16;;;15.70;69.62
18275;BME280;19470;49.322;7.218;2023-05-19T00:02:55;99299.81;;;15.48;69.98
18275;BME280;19470;49.322;7.218;2023-05-19T00:05:22;99309.63;;;15.37;71.97
18275;BME280;19470;49.322;7.218;2023-05-19T00:07:50;99302.75;;;15.09;73.29
18275;BME280;19470;49.322;7.218;2023-05-19T00:10:19;99310.19;;;15.02;76.89
18275;BME280;19470;49.322;7.218;2023-05-19T00:12:46;99306.03;;;15.16;78.33
18275;BME280;19470;49.322;7.218;2023-05-19T00:15:14;99312.88;;;14.75;80.33
18275;BME280;19470;49.322;7.218;2023-05-19T00:17:40;99308.22;;;14.38;81.83
18275;BME280;19470;49.322;7.218;2023-05-19T00:20:08;99306.84;;;14.30;82.72
18275;BME280;19470;49.322;7.218;2023-05-19T00:22:36;99296.34;;;14.24;84.87
18275;BME280;19470;49.322;7.218;2023-05-19T00:25:03;99303.34;;;14.52;84.93
18275;BME280;19470;49.322;7.218;2023-05-19T00:27:31;99298.56;;;14.32;86.27
18275;BME280;19470;49.322;7.218;2023-05-19T00:29:58;99300.00;;;14.40;84.15
18275;BME280;19470;49.322;7.218;2023-05-19T00:32:24;99301.25;;;14.54;83.48
18275;BME280;19470;49.322;7.218;2023-05-19T00:34:51;99293.03;;;14.39;84.16
18275;BME280;19470;49.322;7.218;2023-05-19T00:37:17;99296.66;;;14.27;85.24
18275;BME280;19470;49.322;7.218;2023-05-19T00:39:44;99288.84;;;13.94;88.02
18275;BME280;19470;49.322;7.218;2023-05-19T00:42:11;99285.53;;;14.09;87.64
18275;BME280;19470;49.322;7.218;2023-05-19T00:44:39;99291.47;;;13.72;90.87
18275;BME280;19470;49.322;7.218;2023-05-19T00:47:06;99290.25;;;13.79;90.46
18275;BME280;19470;49.322;7.218;2023-05-19T00:49:33;99287.97;;;13.49;91.06
18275;BME280;19470;49.322;7.218;2023-05-19T00:52:00;99286.50;;;13.59;91.49
18275;BME280;19470;49.322;7.218;2023-05-19T00:54:27;99293.28;;;13.27;93.19
18275;BME280;19470;49.322;7.218;2023-05-19T00:56:54;99287.06;;;13.22;93.52
18275;BME280;19470;49.322;7.218;2023-05-19T00:59:22;99278.59;;;13.25;93.38
18275;BME280;19470;49.322;7.218;2023-05-19T01:01:50;99279.22;;;12.98;93.65
18275;BME280;19470;49.322;7.218;2023-05-19T01:04:18;99279.41;;;13.09;93.45
18275;BME280;19470;49.322;7.218;2023-05-19T01:06:46;99280.72;;;13.23;92.04
18275;BME280;19470;49.322;7.218;2023-05-19T01:09:13;99285.31;;;12.94;92.44
18275;BME280;19470;49.322;7.218;2023-05-19T01:11:40;99286.47;;;13.03;93.97
18275;BME280;19470;49.322;7.218;2023-05-19T01:14:06;99282.53;;;12.89;94.50
18275;BME280;19470;49.322;7.218;2023-05-19T01:16:36;99280.53;;;12.79;95.25
18275;BME280;19470;49.322;7.218;2023-05-19T01:19:13;99280.72;;;12.89;95.11
18275;BME280;19470;49.322;7.218;2023-05-19T01:22:09;99273.19;;;12.69;94.92
18275;BME280;19470;49.322;7.218;2023-05-19T01:24:55;99274.97;;;12.81;93.92
18275;BME280;19470;49.322;7.218;2023-05-19T01:27:40;99276.19;;;12.90;93.27
18275;BME280;19470;49.322;7.218;2023-05-19T01:30:31;99268.91;;;13.02;91.65
18275;BME280;19470;49.322;7.218;2023-05-19T01:33:00;99269.91;;;12.62;94.15
18275;BME280;19470;49.322;7.218;2023-05-19T01:35:28;99280.81;;;12.49;94.83
18275;BME280;19470;49.322;7.218;2023-05-19T01:37:58;99280.19;;;12.59;94.18
18275;BME280;19470;49.322;7.218;2023-05-19T01:40:26;99279.84;;;12.55;95.24
18275;BME280;19470;49.322;7.218;2023-05-19T01:42:56;99278.25;;;12.54;93.04
18275;BME280;19470;49.322;7.218;2023-05-19T01:45:24;99276.72;;;12.58;93.82
18275;BME280;19470;49.322;7.218;2023-05-19T01:47:53;99278.66;;;12.17;95.76
18275;BME280;19470;49.322;7.218;2023-05-19T01:50:21;99281.63;;;11.92;98.55
18275;BME280;19470;49.322;7.218;2023-05-19T01:52:47;99283.22;;;12.05;98.52
18275;BME280;19470;49.322;7.218;2023-05-19T01:58:35;99276.75;;;12.01;98.37
18275;BME280;19470;49.322;7.218;2023-05-19T02:01:11;99278.53;;;11.84;98.19
18275;BME280;19470;49.322;7.218;2023-05-19T02:03:47;99287.53;;;11.83;99.07
18275;BME280;19470;49.322;7.218;2023-05-19T02:06:28;99270.31;;;11.85;99.43
18275;BME280;19470;49.322;7.218;2023-05-19T02:08:57;99286.84;;;12.16;97.28
18275;BME280;19470;49.322;7.218;2023-05-19T02:11:34;99281.56;;;12.33;94.11
18275;BME280;19470;49.322;7.218;2023-05-19T02:14:03;99278.31;;;12.14;94.66
18275;BME280;19470;49.322;7.218;2023-05-19T02:16:35;99275.00;;;12.07;96.30
18275;BME280;19470;49.322;7.218;2023-05-19T02:19:01;99285.78;;;11.76;97.54
18275;BME280;19470;49.322;7.218;2023-05-19T02:21:28;99287.69;;;11.41;98.86
18275;BME280;19470;49.322;7.218;2023-05-19T02:23:55;99283.41;;;11.40;99.29
18275;BME280;19470;49.322;7.218;2023-05-19T02:26:21;99282.47;;;11.46;99.56
18275;BME280;19470;49.322;7.218;2023-05-19T02:28:48;99294.00;;;11.51;99.32
18275;BME280;19470;49.322;7.218;2023-05-19T02:31:14;99294.91;;;11.57;98.48
18275;BME280;19470;49.322;7.218;2023-05-19T02:33:42;99283.41;;;11.63;98.12
18275;BME280;19470;49.322;7.218;2023-05-19T02:36:09;99278.88;;;11.64;98.75
18275;BME280;19470;49.322;7.218;2023-05-19T02:38:35;99279.13;;;11.50;99.66
18275;BME280;19470;49.322;7.218;2023-05-19T02:41:02;99274.28;;;11.47;96.97
18275;BME280;19470;49.322;7.218;2023-05-19T02:43:28;99276.94;;;11.59;97.44
18275;BME280;19470;49.322;7.218;2023-05-19T02:45:55;99270.03;;;11.58;97.79
18275;BME280;19470;49.322;7.218;2023-05-19T02:48:22;99272.59;;;11.30;98.77
18275;BME280;19470;49.322;7.218;2023-05-19T02:50:50;99271.75;;;11.41;97.27
18275;BME280;19470;49.322;7.218;2023-05-19T02:53:50;99264.97;;;11.21;99.84
18275;BME280;19470;49.322;7.218;2023-05-19T02:56:17;99263.47;;;11.02;100.00
18275;BME280;19470;49.322;7.218;2023-05-19T02:58:43;99264.63;;;10.83;100.00
18275;BME280;19470;49.322;7.218;2023-05-19T03:01:10;99274.41;;;10.82;100.00
18275;BME280;19470;49.322;7.218;2023-05-19T03:03:36;99261.94;;;10.71;100.00
18275;BME280;19470;49.322;7.218;2023-05-19T03:06:04;99270.25;;;10.86;100.00
18275;BME280;19470;49.322;7.218;2023-05-19T03:08:33;99269.56;;;10.91;100.00
18275;BME280;19470;49.322;7.218;2023-05-19T03:10:59;99270.13;;;10.69;100.00
18275;BME280;19470;49.322;7.218;2023-05-19T03:13:26;99269.50;;;10.56;100.00
18275;BME280;19470;49.322;7.218;2023-05-19T03:15:52;99279.22;;;10.73;100.00
18275;BME280;19470;49.322;7.218;2023-05-19T03:18:22;99274.75;;;10.86;100.00
18275;BME280;19470;49.322;7.218;2023-05-19T03:20:49;99270.13;;;10.81;100.00
18275;BME280;19470;49.322;7.218;2023-05-19T03:23:20;99266.47;;;10.94;100.00
18275;BME280;19470;49.322;7.218;2023-05-19T03:25:46;99268.63;;;10.73;100.00
18275;BME280;19470;49.322;7.218;2023-05-19T03:28:13;99264.22;;;10.56;100.00
18275;BME280;19470;49.322;7.218;2023-05-19T03:30:39;99267.34;;;10.64;100.00
18275;BME280;19470;49.322;7.218;2023-05-19T03:33:06;99270.31;;;10.56;100.00
18275;BME280;19470;49.322;7.218;2023-05-19T03:35:32;99279.06;;;10.57;100.00
18275;BME280;19470;49.322;7.218;2023-05-19T03:37:59;99277.75;;;10.78;100.00
18275;BME280;19470;49.322;7.218;2023-05-19T03:40:27;99281.16;;;10.55;100.00
18275;BME280;19470;49.322;7.218;2023-05-19T03:42:53;99282.31;;;10.59;100.00
18275;BME280;19470;49.322;7.218;2023-05-19T03:45:20;99284.47;;;10.50;100.00
18275;BME280;19470;49.322;7.218;2023-05-19T03:47:47;99284.28;;;10.63;100.00
18275;BME280;19470;49.322;7.218;2023-05-19T03:50:13;99280.63;;;10.88;99.93
18275;BME280;19470;49.322;7.218;2023-05-19T03:52:43;99280.41;;;10.78;100.00
18275;BME280;19470;49.322;7.218;2023-05-19T03:55:10;99284.22;;;10.40;100.00
18275;BME280;19470;49.322;7.218;2023-05-19T03:57:40;99278.00;;;10.46;100.00
18275;BME280;19470;49.322;7.218;2023-05-19T04:00:08;99281.69;;;10.45;100.00
18275;BME280;19470;49.322;7.218;2023-05-19T04:02:35;99287.53;;;10.35;100.00
18275;BME280;19470;49.322;7.218;2023-05-19T04:05:02;99297.22;;;10.41;100.00
18275;BME280;19470;49.322;7.218;2023-05-19T04:07:29;99295.63;;;10.40;100.00
18275;BME280;19470;49.322;7.218;2023-05-19T04:09:55;99295.78;;;10.27;100.00
18275;BME280;19470;49.322;7.218;2023-05-19T04:12:22;99300.31;;;10.38;100.00
18275;BME280;19470;49.322;7.218;2023-05-19T04:14:50;99298.72;;;10.49;100.00
18275;BME280;19470;49.322;7.218;2023-05-19T04:17:16;99296.00;;;10.67;100.00
18275;BME280;19470;49.322;7.218;2023-05-19T04:19:43;99298.66;;;10.56;100.00
18275;BME280;19470;49.322;7.218;2023-05-19T04:22:09;99303.28;;;10.60;100.00
18275;BME280;19470;49.322;7.218;2023-05-19T04:24:36;99299.00;;;10.59;100.00
18275;BME280;19470;49.322;7.218;2023-05-19T04:27:03;99294.53;;;10.71;100.00
18275;BME280;19470;49.322;7.218;2023-05-19T04:29:29;99302.16;;;10.38;100.00
18275;BME280;19470;49.322;7.218;2023-05-19T04:31:58;99292.34;;;10.68;100.00
18275;BME280;19470;49.322;7.218;2023-05-19T04:34:25;99292.19;;;10.52;100.00
18275;BME280;19470;49.322;7.218;2023-05-19T04:36:52;99295.13;;;10.73;100.00
18275;BME280;19470;49.322;7.218;2023-05-19T04:39:19;99302.34;;;10.66;100.00
18275;BME280;19470;49.322;7.218;2023-05-19T04:41:46;99297.44;;;10.82;100.00
18275;BME280;19470;49.322;7.218;2023-05-19T04:44:12;99297.09;;;10.78;100.00
18275;BME280;19470;49.322;7.218;2023-05-19T04:46:42;99301.13;;;10.81;100.00
18275;BME280;19470;49.322;7.218;2023-05-19T04:49:10;99300.34;;;11.04;100.00
18275;BME280;19470;49.322;7.218;2023-05-19T04:51:38;99300.59;;;11.02;100.00
18275;BME280;19470;49.322;7.218;2023-05-19T04:54:05;99300.47;;;10.97;100.00
18275;BME280;19470;49.322;7.218;2023-05-19T04:56:32;99299.41;;;11.10;100.00
18275;BME280;19470;49.322;7.218;2023-05-19T04:58:58;99296.78;;;11.21;100.00
18275;BME280;19470;49.322;7.218;2023-05-19T05:01:25;99293.06;;;11.69;100.00
18275;BME280;19470;49.322;7.218;2023-05-19T05:03:52;99287.47;;;12.06;100.00
18275;BME280;19470;49.322;7.218;2023-05-19T05:06:20;99289.44;;;11.99;100.00
18275;BME280;19470;49.322;7.218;2023-05-19T05:08:47;99292.41;;;12.14;100.00
18275;BME280;19470;49.322;7.218;2023-05-19T05:11:14;99293.97;;;12.27;100.00
18275;BME280;19470;49.322;7.218;2023-05-19T05:13:41;99293.72;;;12.57;97.71
18275;BME280;19470;49.322;7.218;2023-05-19T05:16:09;99284.16;;;12.90;95.68
18275;BME280;19470;49.322;7.218;2023-05-19T05:18:36;99289.41;;;12.85;93.79
18275;BME280;19470;49.322;7.218;2023-05-19T05:21:04;99293.09;;;12.84;94.50
18275;BME280;19470;49.322;7.218;2023-05-19T05:23:33;99283.50;;;13.16;91.97
18275;BME280;19470;49.322;7.218;2023-05-19T05:26:05;99292.78;;;13.14;91.00
18275;BME280;19470;49.322;7.218;2023-05-19T05:28:34;99290.13;;;13.30;88.87
18275;BME280;19470;49.322;7.218;2023-05-19T05:31:01;99293.91;;;13.35;89.08
18275;BME280;19470;49.322;7.218;2023-05-19T05:33:27;99296.00;;;13.71;87.25
18275;BME280;19470;49.322;7.218;2023-05-19T05:35:54;99287.22;;;13.93;83.76
18275;BME280;19470;49.322;7.218;2023-05-19T05:38:20;99291.50;;;14.21;83.22
18275;BME280;19470;49.322;7.218;2023-05-19T05:40:48;99283.84;;;14.24;83.68
18275;BME280;19470;49.322;7.218;2023-05-19T05:43:14;99283.72;;;14.14;82.98
18275;BME280;19470;49.322;7.218;2023-05-19T05:45:41;99286.00;;;14.81;79.40
18275;BME280;19470;49.322;7.218;2023-05-19T05:48:08;99281.16;;;14.73;79.68
18275;BME280;19470;49.322;7.218;2023-05-19T05:50:35;99280.31;;;15.05;79.60
18275;BME280;19470;49.322;7.218;2023-05-19T05:53:02;99276.09;;;15.14;79.95
18275;BME280;19470;49.322;7.218;2023-05-19T05:55:31;99271.63;;;15.20;80.00
18275;BME280;19470;49.322;7.218;2023-05-19T05:57:59;99275.22;;;15.41;80.64
18275;BME280;19470;49.322;7.218;2023-05-19T06:00:27;99272.41;;;15.63;78.27
18275;BME280;19470;49.322;7.218;2023-05-19T06:02:54;99272.88;;;15.49;75.50
18275;BME280;19470;49.322;7.218;2023-05-19T06:05:21;99270.13;;;15.81;71.75
18275;BME280;19470;49.322;7.218;2023-05-19T06:07:48;99271.00;;;16.07;72.44
18275;BME280;19470;49.322;7.218;2023-05-19T06:10:15;99275.00;;;16.00;73.67
18275;BME280;19470;49.322;7.218;2023-05-19T06:12:41;99269.84;;;15.36;72.74
18275;BME280;19470;49.322;7.218;2023-05-19T06:15:09;99268.34;;;15.55;71.10
18275;BME280;19470;49.322;7.218;2023-05-19T06:17:36;99279.47;;;15.89;70.52
18275;BME280;19470;49.322;7.218;2023-05-19T06:20:03;99273.69;;;16.13;69.46
18275;BME280;19470;49.322;7.218;2023-05-19T06:22:30;99267.31;;;16.24;70.91
18275;BME280;19470;49.322;7.218;2023-05-19T06:24:57;99261.69;;;16.25;67.46
18275;BME280;19470;49.322;7.218;2023-05-19T06:27:24;99271.06;;;16.28;68.77
18275;BME280;19470;49.322;7.218;2023-05-19T06:29:50;99263.06;;;16.33;67.63
18275;BME280;19470;49.322;7.218;2023-05-19T06:32:18;99255.56;;;16.55;65.70
18275;BME280;19470;49.322;7.218;2023-05-19T06:34:45;99264.97;;;16.94;63.61
18275;BME280;19470;49.322;7.218;2023-05-19T06:37:18;99262.25;;;17.24;63.69
18275;BME280;19470;49.322;7.218;2023-05-19T06:39:45;99261.50;;;16.83;64.61
18275;BME280;19470;49.322;7.218;2023-05-19T06:42:13;99266.25;;;17.42;64.64
18275;BME280;19470;49.322;7.218;2023-05-19T06:44:39;99260.94;;;17.06;62.95
18275;BME280;19470;49.322;7.218;2023-05-19T06:47:06;99255.22;;;17.49;62.91
18275;BME280;19470;49.322;7.218;2023-05-19T06:49:34;99266.50;;;17.51;63.31
18275;BME280;19470;49.322;7.218;2023-05-19T06:52:00;99262.97;;;17.66;60.29
18275;BME280;19470;49.322;7.218;2023-05-19T06:54:27;99267.59;;;16.43;65.46
18275;BME280;19470;49.322;7.218;2023-05-19T06:56:53;99264.38;;;17.37;62.69
18275;BME280;19470;49.322;7.218;2023-05-19T06:59:20;99261.44;;;17.34;62.47
18275;BME280;19470;49.322;7.218;2023-05-19T07:01:47;99270.16;;;17.70;64.52
18275;BME280;19470;49.322;7.218;2023-05-19T07:04:13;99263.78;;;18.21;64.11
18275;BME280;19470;49.322;7.218;2023-05-19T07:06:41;99270.16;;;17.80;64.06
18275;BME280;19470;49.322;7.218;2023-05-19T07:09:08;99272.81;;;17.85;62.17
18275;BME280;19470;49.322;7.218;2023-05-19T07:11:34;99269.84;;;18.42;60.67
18275;BME280;19470;49.322;7.218;2023-05-19T07:14:01;99274.19;;;18.32;61.70
18275;BME280;19470;49.322;7.218;2023-05-19T07:16:27;99270.88;;;18.46;61.35
18275;BME280;19470;49.322;7.218;2023-05-19T07:18:54;99271.44;;;18.43;61.74
18275;BME280;19470;49.322;7.218;2023-05-19T07:21:20;99270.16;;;17.70;62.12
18275;BME280;19470;49.322;7.218;2023-05-19T07:23:48;99268.59;;;18.63;59.40
18275;BME280;19470;49.322;7.218;2023-05-19T07:26:15;99257.59;;;18.99;59.84
18275;BME280;19470;49.322;7.218;2023-05-19T07:28:41;99260.16;;;18.46;59.29
18275;BME280;19470;49.322;7.218;2023-05-19T07:31:08;99251.72;;;19.26;59.64
18275;BME280;19470;49.322;7.218;2023-05-19T07:33:35;99248.81;;;19.70;59.07
18275;BME280;19470;49.322;7.218;2023-05-19T07:36:01;99248.00;;;18.93;56.79
18275;BME280;19470;49.322;7.218;2023-05-19T07:38:29;99248.66;;;19.08;57.00
18275;BME280;19470;49.322;7.218;2023-05-19T07:41:00;99249.72;;;19.84;56.58
18275;BME280;19470;49.322;7.218;2023-05-19T07:43:27;99242.56;;;19.75;55.95
18275;BME280;19470;49.322;7.218;2023-05-19T07:45:53;99243.56;;;20.40;54.54
18275;BME280;19470;49.322;7.218;2023-05-19T07:48:20;99251.63;;;20.59;54.00
18275;BME280;19470;49.322;7.218;2023-05-19T07:50:49;99246.16;;;20.46;52.56
18275;BME280;19470;49.322;7.218;2023-05-19T07:53:16;99250.53;;;20.93;52.35
18275;BME280;19470;49.322;7.218;2023-05-19T07:55:42;99235.88;;;20.15;52.81
18275;BME280;19470;49.322;7.218;2023-05-19T07:58:10;99238.66;;;20.48;53.05
18275;BME280;19470;49.322;7.218;2023-05-19T08:00:37;99233.41;;;20.37;52.07
18275;BME280;19470;49.322;7.218;2023-05-19T08:03:05;99239.28;;;21.37;50.85
18275;BME280;19470;49.322;7.218;2023-05-19T08:05:33;99240.44;;;21.59;49.33
18275;BME280;19470;49.322;7.218;2023-05-19T08:07:59;99237.69;;;21.50;48.76
18275;BME280;19470;49.322;7.218;2023-05-19T08:10:27;99236.97;;;20.98;50.63
18275;BME280;19470;49.322;7.218;2023-05-19T08:12:54;99233.81;;;21.10;51.33
18275;BME280;19470;49.322;7.218;2023-05-19T08:15:22;99243.34;;;21.49;51.26
18275;BME280;19470;49.322;7.218;2023-05-19T08:17:49;99233.22;;;20.99;50.66
18275;BME280;19470;49.322;7.218;2023-05-19T08:20:16;99236.53;;;21.92;50.49
18275;BME280;19470;49.322;7.218;2023-05-19T08:22:42;99237.16;;;20.88;51.49
18275;BME280;19470;49.322;7.218;2023-05-19T08:25:09;99222.00;;;21.66;51.85
18275;BME280;19470;49.322;7.218;2023-05-19T08:27:35;99229.88;;;21.76;50.79
18275;BME280;19470;49.322;7.218;2023-05-19T08:30:02;99220.72;;;22.13;48.41
18275;BME280;19470;49.322;7.218;2023-05-19T08:32:30;99219.47;;;22.56;48.63
18275;BME280;19470;49.322;7.218;2023-05-19T08:34:57;99215.03;;;22.60;47.17
18275;BME280;19470;49.322;7.218;2023-05-19T08:37:23;99220.50;;;22.24;46.61
18275;BME280;19470;49.322;7.218;2023-05-19T08:39:50;99214.66;;;22.53;49.32
18275;BME280;19470;49.322;7.218;2023-05-19T08:42:16;99215.81;;;22.15;49.94
18275;BME280;19470;49.322;7.218;2023-05-19T08:44:43;99209.22;;;22.08;49.63
18275;BME280;19470;49.322;7.218;2023-05-19T08:47:09;99204.41;;;23.17;48.06
18275;BME280;19470;49.322;7.218;2023-05-19T08:49:42;99197.75;;;23.23;46.44
18275;BME280;19470;49.322;7.218;2023-05-19T08:52:24;99193.56;;;22.32;46.63
18275;BME280;19470;49.322;7.218;2023-05-19T08:54:59;99188.06;;;22.91;46.93
18275;BME280;19470;49.322;7.218;2023-05-19T08:57:26;99187.00;;;22.92;47.29
18275;BME280;19470;49.322;7.218;2023-05-19T08:59:54;99183.09;;;22.84;46.68
18275;BME280;19470;49.322;7.218;2023-05-19T09:02:21;99190.63;;;24.02;46.41
18275;BME280;19470;49.322;7.218;2023-05-19T09:04:50;99180.13;;;24.26;42.84
18275;BME280;19470;49.322;7.218;2023-05-19T09:07:17;99179.06;;;25.30;42.88
18275;BME280;19470;49.322;7.218;2023-05-19T09:09:44;99173.28;;;24.03;43.09
18275;BME280;19470;49.322;7.218;2023-05-19T09:12:12;99181.25;;;23.90;41.02
18275;BME280;19470;49.322;7.218;2023-05-19T09:14:39;99163.38;;;24.50;41.56
18275;BME280;19470;49.322;7.218;2023-05-19T09:17:05;99169.63;;;23.73;42.17
18275;BME280;19470;49.322;7.218;2023-05-19T09:19:32;99175.78;;;24.68;41.42
18275;BME280;19470;49.322;7.218;2023-05-19T09:22:00;99164.66;;;23.66;42.10
18275;BME280;19470;49.322;7.218;2023-05-19T09:24:28;99170.50;;;23.02;43.98
18275;BME280;19470;49.322;7.218;2023-05-19T09:26:55;99159.59;;;24.42;43.81
18275;BME280;19470;49.322;7.218;2023-05-19T09:29:22;99154.81;;;23.70;45.00
18275;BME280;19470;49.322;7.218;2023-05-19T09:31:49;99153.59;;;25.72;39.38
18275;BME280;19470;49.322;7.218;2023-05-19T09:34:16;99147.31;;;24.28;41.62
18275;BME280;19470;49.322;7.218;2023-05-19T09:36:43;99157.16;;;25.14;39.78
18275;BME280;19470;49.322;7.218;2023-05-19T09:39:15;99154.44;;;25.05;41.60
18275;BME280;19470;49.322;7.218;2023-05-19T09:41:42;99142.28;;;25.70;38.43
18275;BME280;19470;49.322;7.218;2023-05-19T09:44:11;99136.88;;;26.12;38.09
18275;BME280;19470;49.322;7.218;2023-05-19T09:46:46;99148.44;;;25.59;39.50
18275;BME280;19470;49.322;7.218;2023-05-19T09:49:12;99156.31;;;25.52;40.11
18275;BME280;19470;49.322;7.218;2023-05-19T09:51:40;99158.16;;;24.45;40.96
18275;BME280;19470;49.322;7.218;2023-05-19T09:54:06;99153.69;;;25.34;40.25
18275;BME280;19470;49.322;7.218;2023-05-19T09:56:36;99149.06;;;25.85;40.01
18275;BME280;19470;49.322;7.218;2023-05-19T09:59:03;99144.81;;;25.25;41.52
18275;BME280;19470;49.322;7.218;2023-05-19T10:01:30;99142.69;;;26.56;39.94
18275;BME280;19470;49.322;7.218;2023-05-19T10:03:58;99138.88;;;27.43;36.85
18275;BME280;19470;49.322;7.218;2023-05-19T10:06:25;99136.47;;;26.22;36.99
18275;BME280;19470;49.322;7.218;2023-05-19T10:08:52;99140.66;;;25.28;39.31
18275;BME280;19470;49.322;7.218;2023-05-19T10:11:21;99133.28;;;24.98;39.78
18275;BME280;19470;49.322;7.218;2023-05-19T10:13:50;99119.03;;;26.57;40.82
18275;BME280;19470;49.322;7.218;2023-05-19T10:16:19;99129.25;;;26.84;37.77
18275;BME280;19470;49.322;7.218;2023-05-19T10:18:48;99127.56;;;28.49;32.23
18275;BME280;19470;49.322;7.218;2023-05-19T10:21:17;99123.81;;;27.58;34.64
18275;BME280;19470;49.322;7.218;2023-05-19T10:23:43;99123.25;;;26.91;35.85
18275;BME280;19470;49.322;7.218;2023-05-19T10:26:10;99123.59;;;26.77;36.76
18275;BME280;19470;49.322;7.218;2023-05-19T10:28:40;99112.59;;;27.71;35.34
18275;BME280;19470;49.322;7.218;2023-05-19T10:31:12;99114.53;;;27.46;34.70
18275;BME280;19470;49.322;7.218;2023-05-19T10:33:59;99106.50;;;28.18;34.43
18275;BME280;19470;49.322;7.218;2023-05-19T10:36:42;99103.72;;;29.99;30.81
18275;BME280;19470;49.322;7.218;2023-05-19T10:39:15;99099.72;;;28.72;30.66
18275;BME280;19470;49.322;7.218;2023-05-19T10:41:48;99089.31;;;28.77;32.48
18275;BME280;19470;49.322;7.218;2023-05-19T10:44:22;99103.16;;;28.25;31.55
18275;BME280;19470;49.322;7.218;2023-05-19T10:46:54;99101.47;;;28.64;32.16
18275;BME280;19470;49.322;7.218;2023-05-19T10:49:21;99094.75;;;27.62;33.57
18275;BME280;19470;49.322;7.218;2023-05-19T10:51:48;99098.41;;;29.87;32.17
18275;BME280;19470;49.322;7.218;2023-05-19T10:54:15;99099.84;;;30.20;30.24
18275;BME280;19470;49.322;7.218;2023-05-19T10:56:43;99091.53;;;29.39;31.81
18275;BME280;19470;49.322;7.218;2023-05-19T10:59:29;99094.00;;;29.09;30.49
18275;BME280;19470;49.322;7.218;2023-05-19T11:02:02;99095.50;;;28.15;32.05
18275;BME280;19470;49.322;7.218;2023-05-19T11:04:38;99086.78;;;29.36;30.60
18275;BME280;19470;49.322;7.218;2023-05-19T11:07:07;99093.78;;;29.52;32.13
18275;BME280;19470;49.322;7.218;2023-05-19T11:09:39;99077.88;;;29.39;32.74
18275;BME280;19470;49.322;7.218;2023-05-19T11:12:07;99084.25;;;31.16;28.97
18275;BME280;19470;49.322;7.218;2023-05-19T11:14:35;99085.88;;;30.25;30.12
18275;BME280;19470;49.322;7.218;2023-05-19T11:17:03;99085.03;;;28.17;30.47
18275;BME280;19470;49.322;7.218;2023-05-19T11:19:31;99078.28;;;28.11;30.80
18275;BME280;19470;49.322;7.218;2023-05-19T11:22:07;99080.13;;;29.52;29.99
18275;BME280;19470;49.322;7.218;2023-05-19T11:24:35;99075.09;;;29.00;30.73
18275;BME280;19470;49.322;7.218;2023-05-19T11:27:23;99079.03;;;29.02;29.47
18275;BME280;19470;49.322;7.218;2023-05-19T11:29:51;99077.25;;;31.18;29.31
18275;BME280;19470;49.322;7.218;2023-05-19T11:32:21;99055.75;;;32.14;28.49
18275;BME280;19470;49.322;7.218;2023-05-19T11:34:48;99069.78;;;31.42;27.92
18275;BME280;19470;49.322;7.218;2023-05-19T11:37:15;99069.09;;;29.45;30.94
18275;BME280;19470;49.322;7.218;2023-05-19T11:39:41;99057.44;;;27.34;32.55
18275;BME280;19470;49.322;7.218;2023-05-19T11:42:09;99065.56;;;27.87;33.05
18275;BME280;19470;49.322;7.218;2023-05-19T11:44:36;99061.53;;;29.39;30.47
18275;BME280;19470;49.322;7.218;2023-05-19T11:47:03;99069.94;;;28.19;31.31
18275;BME280;19470;49.322;7.218;2023-05-19T11:49:31;99067.50;;;28.93;30.15
18275;BME280;19470;49.322;7.218;2023-05-19T11:51:59;99058.56;;;28.45;30.99
18275;BME280;19470;49.322;7.218;2023-05-19T11:54:29;99061.97;;;27.70;32.45
18275;BME280;19470;49.322;7.218;2023-05-19T11:56:59;99064.16;;;29.35;30.80
18275;BME280;19470;49.322;7.218;2023-05-19T11:59:30;99052.53;;;29.19;30.56
18275;BME280;19470;49.322;7.218;2023-05-19T12:02:00;99060.59;;;28.64;30.58
18275;BME280;19470;49.322;7.218;2023-05-19T12:04:27;99064.91;;;28.49;32.37
18275;BME280;19470;49.322;7.218;2023-05-19T12:06:55;99050.50;;;27.49;31.52
18275;BME280;19470;49.322;7.218;2023-05-19T12:09:21;99043.97;;;27.94;32.00
18275;BME280;19470;49.322;7.218;2023-05-19T12:11:49;99052.34;;;28.61;31.84
18275;BME280;19470;49.322;7.218;2023-05-19T12:14:16;99044.81;;;28.26;32.54
18275;BME280;19470;49.322;7.218;2023-05-19T12:16:43;99045.50;;;28.23;31.56
18275;BME280;19470;49.322;7.218;2023-05-19T12:19:10;99052.06;;;28.34;32.25
18275;BME280;19470;49.322;7.218;2023-05-19T12:21:36;99048.72;;;27.97;30.30
18275;BME280;19470;49.322;7.218;2023-05-19T12:24:05;99046.09;;;27.44;32.14
18275;BME280;19470;49.322;7.218;2023-05-19T12:26:32;99045.63;;;27.70;33.62
18275;BME280;19470;49.322;7.218;2023-05-19T12:28:58;99044.28;;;28.20;31.39
18275;BME280;19470;49.322;7.218;2023-05-19T12:31:25;99047.03;;;30.35;28.11
18275;BME280;19470;49.322;7.218;2023-05-19T12:33:52;99048.72;;;28.57;31.83
18275;BME280;19470;49.322;7.218;2023-05-19T12:36:18;99038.66;;;28.13;32.22
18275;BME280;19470;49.322;7.218;2023-05-19T12:38:46;99048.53;;;29.32;31.41
18275;BME280;19470;49.322;7.218;2023-05-19T12:41:19;99047.00;;;27.36;33.79
18275;BME280;19470;49.322;7.218;2023-05-19T12:43:47;99050.00;;;27.07;33.70
18275;BME280;19470;49.322;7.218;2023-05-19T12:46:14;99047.31;;;26.82;34.08
18275;BME280;19470;49.322;7.218;2023-05-19T12:48:42;99044.91;;;25.78;35.73
18275;BME280;19470;49.322;7.218;2023-05-19T12:51:09;99048.25;;;25.41;37.33
18275;BME280;19470;49.322;7.218;2023-05-19T12:53:36;99041.47;;;25.89;36.41
18275;BME280;19470;49.322;7.218;2023-05-19T12:56:10;99044.66;;;25.49;37.36
18275;BME280;19470;49.322;7.218;2023-05-19T12:58:39;99033.34;;;26.96;34.86
18275;BME280;19470;49.322;7.218;2023-05-19T13:01:05;99031.28;;;27.05;34.59
18275;BME280;19470;49.322;7.218;2023-05-19T13:03:38;99040.59;;;26.80;34.26
18275;BME280;19470;49.322;7.218;2023-05-19T13:06:05;99044.69;;;26.16;37.90